createdAt,value
2018-03-19T00:00:10.239Z,0.80
2018-03-19T00:02:38.535Z,0.80
2018-03-19T00:05:06.758Z,0.80
2018-03-19T00:07:35.049Z,0.80
2018-03-19T00:10:03.374Z,0.80
2018-03-19T00:12:31.618Z,0.80
2018-03-19T00:15:00.654Z,0.80
2018-03-19T00:17:29.708Z,0.80
2018-03-19T00:19:58.020Z,0.80
2018-03-19T00:22:26.269Z,0.80
2018-03-19T00:24:54.521Z,0.80
2018-03-19T00:27:22.788Z,0.80
2018-03-19T00:29:51.100Z,0.80
2018-03-19T00:32:19.400Z,0.80
2018-03-19T00:34:47.650Z,0.80
2018-03-19T00:37:15.946Z,0.80
2018-03-19T00:39:44.213Z,0.80
2018-03-19T00:42:12.499Z,0.80
2018-03-19T00:44:40.754Z,0.80
2018-03-19T00:47:09.060Z,0.80
2018-03-19T00:49:37.373Z,0.80
2018-03-19T00:52:05.624Z,0.80
2018-03-19T00:54:34.682Z,0.80
2018-03-19T00:57:02.922Z,0.70
2018-03-19T00:59:31.168Z,0.80
2018-03-19T01:02:00.207Z,0.80
2018-03-19T01:04:28.504Z,0.80
2018-03-19T01:06:56.775Z,0.80
2018-03-19T01:09:25.023Z,0.70
2018-03-19T01:11:53.273Z,0.80
2018-03-19T01:14:22.314Z,0.80
2018-03-19T01:16:50.594Z,0.70
2018-03-19T01:19:18.835Z,0.80
2018-03-19T01:21:47.171Z,0.80
2018-03-19T01:24:16.214Z,0.80
2018-03-19T01:26:44.465Z,0.80
2018-03-19T01:29:12.763Z,0.80
2018-03-19T01:31:41.001Z,0.80
2018-03-19T01:34:09.270Z,0.80
2018-03-19T01:36:37.546Z,0.80
2018-03-19T01:39:05.833Z,0.80
2018-03-19T01:41:34.115Z,0.80
2018-03-19T01:44:02.420Z,0.80
2018-03-19T01:46:30.688Z,0.80
2018-03-19T01:48:58.942Z,0.80
2018-03-19T01:51:27.260Z,0.80
2018-03-19T01:53:55.517Z,0.80
2018-03-19T01:56:24.574Z,0.80
2018-03-19T01:58:52.870Z,0.80
2018-03-19T02:01:21.127Z,0.70
2018-03-19T02:03:49.405Z,0.80
2018-03-19T02:06:17.677Z,0.80
2018-03-19T02:08:45.957Z,0.80
2018-03-19T02:11:14.200Z,0.80
2018-03-19T02:13:42.501Z,0.80
2018-03-19T02:16:10.788Z,0.80
2018-03-19T02:18:39.066Z,0.80
2018-03-19T02:21:07.310Z,0.80
2018-03-19T02:23:35.629Z,0.80
2018-03-19T02:26:03.881Z,0.80
2018-03-19T02:28:32.213Z,0.80
2018-03-19T02:31:00.513Z,0.80
2018-03-19T02:33:28.789Z,0.80
2018-03-19T02:35:57.039Z,0.80
2018-03-19T02:38:26.135Z,0.80
2018-03-19T02:40:54.435Z,0.80
2018-03-19T02:43:22.680Z,0.80
2018-03-19T02:45:51.726Z,0.80
2018-03-19T02:48:19.977Z,0.80
2018-03-19T02:50:48.565Z,0.80
2018-03-19T02:53:16.849Z,0.70
2018-03-19T02:55:45.145Z,0.70
2018-03-19T02:58:13.404Z,0.80
2018-03-19T03:00:41.699Z,0.80
2018-03-19T03:03:09.989Z,0.80
2018-03-19T03:05:38.227Z,0.70
2018-03-19T03:08:06.507Z,0.70
2018-03-19T03:10:34.803Z,0.80
2018-03-19T03:13:03.052Z,0.80
2018-03-19T03:15:31.381Z,0.80
2018-03-19T03:17:59.637Z,0.80
2018-03-19T03:20:27.932Z,0.80
2018-03-19T03:22:56.212Z,0.80
2018-03-19T03:25:24.506Z,0.80
2018-03-19T03:27:52.789Z,0.80
2018-03-19T03:30:21.807Z,0.70
2018-03-19T03:32:50.126Z,0.80
2018-03-19T03:35:18.360Z,0.80
2018-03-19T03:37:46.628Z,0.80
2018-03-19T03:40:14.898Z,0.80
2018-03-19T03:42:43.967Z,0.80
2018-03-19T03:45:12.258Z,0.90
2018-03-19T03:47:41.352Z,0.80
2018-03-19T03:50:10.358Z,0.80
2018-03-19T03:52:38.631Z,0.80
2018-03-19T03:55:07.698Z,0.80
2018-03-19T03:57:36.769Z,0.80
2018-03-19T04:00:05.032Z,0.80
2018-03-19T04:02:33.325Z,0.80
2018-03-19T04:05:01.614Z,0.80
2018-03-19T04:07:29.854Z,0.80
2018-03-19T04:09:58.154Z,0.80
2018-03-19T04:12:26.428Z,0.80
2018-03-19T04:14:55.474Z,0.80
2018-03-19T04:17:24.494Z,0.80
2018-03-19T04:19:52.736Z,0.80
2018-03-19T04:22:21.795Z,0.80
2018-03-19T04:24:50.061Z,0.80
2018-03-19T04:27:18.360Z,0.80
2018-03-19T04:29:46.659Z,0.80
2018-03-19T04:32:15.748Z,0.80
2018-03-19T04:34:44.008Z,0.80
2018-03-19T04:37:12.280Z,0.80
2018-03-19T04:39:40.574Z,0.80
2018-03-19T04:42:08.900Z,0.80
2018-03-19T04:44:37.140Z,0.80
2018-03-19T04:47:06.162Z,0.70
2018-03-19T04:49:34.419Z,0.80
2018-03-19T04:52:03.452Z,0.80
2018-03-19T04:54:31.725Z,0.80
2018-03-19T04:57:00.026Z,0.80
2018-03-19T04:59:28.280Z,0.80
2018-03-19T05:01:56.595Z,0.80
2018-03-19T05:04:24.895Z,0.83
2018-03-19T05:06:53.914Z,0.80
2018-03-19T05:09:22.242Z,0.80
2018-03-19T05:11:50.539Z,0.80
2018-03-19T05:14:19.537Z,0.80
2018-03-19T05:16:47.805Z,0.70
2018-03-19T05:19:16.899Z,0.80
2018-03-19T05:21:45.274Z,0.80
2018-03-19T05:24:13.492Z,0.80
2018-03-19T05:26:41.808Z,0.80
2018-03-19T05:29:10.104Z,0.80
2018-03-19T05:31:38.444Z,0.80
2018-03-19T05:34:06.755Z,0.70
2018-03-19T05:36:35.034Z,0.80
2018-03-19T05:39:03.398Z,0.80
2018-03-19T05:41:31.652Z,0.80
2018-03-19T05:43:59.933Z,0.80
2018-03-19T05:46:28.188Z,0.80
2018-03-19T05:48:56.547Z,0.80
2018-03-19T05:51:25.590Z,0.80
2018-03-19T05:53:53.922Z,0.80
2018-03-19T05:56:22.216Z,0.80
2018-03-19T05:58:50.543Z,0.80
2018-03-19T06:01:18.855Z,0.70
2018-03-19T06:03:47.130Z,0.80
2018-03-19T06:06:15.382Z,0.80
2018-03-19T06:08:44.463Z,0.80
2018-03-19T06:11:12.747Z,0.70
2018-03-19T06:13:41.027Z,0.80
2018-03-19T06:16:09.368Z,0.70
2018-03-19T06:18:37.612Z,0.80
2018-03-19T06:21:05.938Z,0.80
2018-03-19T06:23:34.191Z,0.80
2018-03-19T06:26:02.497Z,0.80
2018-03-19T06:28:30.746Z,0.80
2018-03-19T06:30:59.032Z,0.83
2018-03-19T06:33:27.325Z,0.80
2018-03-19T06:35:55.588Z,0.80
2018-03-19T06:38:24.677Z,0.87
2018-03-19T06:40:52.975Z,0.80
2018-03-19T06:43:21.286Z,0.80
2018-03-19T06:45:50.294Z,0.80
2018-03-19T06:48:18.552Z,0.80
2018-03-19T06:50:47.582Z,0.80
2018-03-19T06:53:15.854Z,0.80
2018-03-19T06:55:44.101Z,0.80
2018-03-19T06:58:13.187Z,0.80
2018-03-19T07:00:41.479Z,0.80
2018-03-19T07:03:10.516Z,0.80
2018-03-19T07:05:38.796Z,0.77
2018-03-19T07:08:07.139Z,0.83
2018-03-19T07:10:35.372Z,0.80
2018-03-19T07:13:03.875Z,0.80
2018-03-19T07:15:32.907Z,0.80
2018-03-19T07:18:01.219Z,0.90
2018-03-19T07:20:29.520Z,0.80
2018-03-19T07:22:57.771Z,0.80
2018-03-19T07:25:26.048Z,0.80
2018-03-19T07:27:54.293Z,0.87
2018-03-19T07:30:22.594Z,0.80
2018-03-19T07:32:50.841Z,0.80
2018-03-19T07:35:19.161Z,0.90
2018-03-19T07:37:47.427Z,0.90
2018-03-19T07:40:15.760Z,0.80
2018-03-19T07:42:44.015Z,0.80
2018-03-19T07:45:13.070Z,0.80
2018-03-19T07:47:41.373Z,0.80
2018-03-19T07:50:09.597Z,0.80
2018-03-19T07:52:37.881Z,0.80
2018-03-19T07:55:06.159Z,0.80
2018-03-19T07:57:34.425Z,0.80
2018-03-19T08:00:02.729Z,0.80
2018-03-19T08:02:30.997Z,0.80
2018-03-19T08:04:59.276Z,0.80
2018-03-19T08:07:27.596Z,0.80
2018-03-19T08:09:55.839Z,0.80
2018-03-19T08:12:24.136Z,0.73
2018-03-19T08:14:52.400Z,0.80
2018-03-19T08:17:20.633Z,0.80
2018-03-19T08:19:48.964Z,0.80
2018-03-19T08:22:17.210Z,0.80
2018-03-19T08:24:45.511Z,0.80
2018-03-19T08:27:13.776Z,0.80
2018-03-19T08:29:42.080Z,0.80
2018-03-19T08:32:10.325Z,0.80
2018-03-19T08:34:39.375Z,0.80
2018-03-19T08:37:07.665Z,0.80
2018-03-19T08:39:35.973Z,0.80
2018-03-19T08:42:04.215Z,0.80
2018-03-19T08:44:32.525Z,0.80
2018-03-19T08:47:00.765Z,0.70
2018-03-19T08:49:28.997Z,0.80
2018-03-19T08:51:57.278Z,0.80
2018-03-19T08:54:25.567Z,0.80
2018-03-19T08:56:54.603Z,0.70
2018-03-19T08:59:22.890Z,0.70
2018-03-19T09:01:51.154Z,0.80
2018-03-19T09:04:19.437Z,0.80
2018-03-19T09:06:47.739Z,0.80
2018-03-19T09:09:15.981Z,0.80
2018-03-19T09:11:44.292Z,0.70
2018-03-19T09:14:12.545Z,0.80
2018-03-19T09:16:40.805Z,0.70
2018-03-19T09:19:09.105Z,0.70
2018-03-19T09:21:37.401Z,0.70
2018-03-19T09:24:05.698Z,0.73
2018-03-19T09:26:33.975Z,0.80
2018-03-19T09:29:02.225Z,0.80
2018-03-19T09:31:30.521Z,0.80
2018-03-19T09:33:58.826Z,0.80
2018-03-19T09:36:27.822Z,0.80
2018-03-19T09:38:56.151Z,0.80
2018-03-19T09:41:24.464Z,0.80
2018-03-19T09:43:53.497Z,0.80
2018-03-19T09:46:21.812Z,0.80
2018-03-19T09:48:50.050Z,0.80
2018-03-19T09:51:20.154Z,0.70
2018-03-19T09:53:48.437Z,0.80
2018-03-19T09:56:16.706Z,0.70
2018-03-19T09:58:44.991Z,0.73
2018-03-19T10:01:13.294Z,0.80
2018-03-19T10:03:41.588Z,0.73
2018-03-19T10:06:09.902Z,0.70
2018-03-19T10:08:38.193Z,0.70
2018-03-19T10:11:06.477Z,0.80
2018-03-19T10:13:34.737Z,0.70
2018-03-19T10:16:03.755Z,0.70
2018-03-19T10:18:32.092Z,0.80
2018-03-19T10:21:00.412Z,0.70
2018-03-19T10:23:28.648Z,0.80
2018-03-19T10:25:57.659Z,0.70
2018-03-19T10:28:25.915Z,0.70
2018-03-19T10:30:54.941Z,0.70
2018-03-19T10:33:23.255Z,0.70
2018-03-19T10:35:51.630Z,0.77
2018-03-19T10:38:19.931Z,0.70
2018-03-19T10:40:48.194Z,0.70
2018-03-19T10:43:16.484Z,0.70
2018-03-19T10:45:44.770Z,0.70
2018-03-19T10:48:13.025Z,0.70
2018-03-19T10:50:41.394Z,0.70
2018-03-19T10:53:09.698Z,0.70
2018-03-19T10:55:37.939Z,0.70
2018-03-19T10:58:06.995Z,0.80
2018-03-19T11:00:35.321Z,0.70
2018-03-19T11:03:06.722Z,0.77
2018-03-19T11:05:41.397Z,0.70
2018-03-19T11:08:09.696Z,0.77
2018-03-19T11:10:37.947Z,0.70
2018-03-19T11:13:06.178Z,0.70
2018-03-19T11:15:34.444Z,0.70
2018-03-19T11:18:03.500Z,0.70
2018-03-19T11:20:31.854Z,0.70
2018-03-19T11:23:00.197Z,0.70
2018-03-19T11:25:29.362Z,0.70
2018-03-19T11:27:57.648Z,0.70
2018-03-19T11:30:26.148Z,0.70
2018-03-19T11:32:55.150Z,0.70
2018-03-19T11:35:24.183Z,0.70
2018-03-19T11:37:52.426Z,0.70
2018-03-19T11:40:20.717Z,0.70
2018-03-19T11:42:48.994Z,0.70
2018-03-19T11:45:17.236Z,0.70
2018-03-19T11:47:45.494Z,0.70
2018-03-19T11:50:13.792Z,0.70
2018-03-19T11:52:42.889Z,0.60
2018-03-19T11:55:11.933Z,0.70
2018-03-19T11:57:40.236Z,0.60
2018-03-19T12:00:08.565Z,0.63
2018-03-19T12:02:36.888Z,0.60
2018-03-19T12:05:05.146Z,0.60
2018-03-19T12:07:33.440Z,0.60
2018-03-19T12:10:01.744Z,0.60
2018-03-19T12:12:30.835Z,0.60
2018-03-19T12:14:59.148Z,0.60
2018-03-19T12:17:27.396Z,0.60
2018-03-19T12:19:56.482Z,0.60
2018-03-19T12:22:24.735Z,0.50
2018-03-19T12:24:53.095Z,0.50
2018-03-19T12:27:21.357Z,0.60
2018-03-19T12:29:49.617Z,0.50
2018-03-19T12:32:17.887Z,0.50
2018-03-19T12:34:46.176Z,0.50
2018-03-19T12:37:14.434Z,0.40
2018-03-19T12:39:42.686Z,0.40
2018-03-19T12:42:10.990Z,0.50
2018-03-19T12:44:40.000Z,0.40
2018-03-19T12:47:08.294Z,0.40
2018-03-19T12:49:36.616Z,0.40
2018-03-19T12:52:04.869Z,0.40
2018-03-19T12:54:33.197Z,0.30
2018-03-19T12:57:01.448Z,0.40
2018-03-19T12:59:29.772Z,0.30
2018-03-19T13:01:58.070Z,0.30
2018-03-19T13:04:26.386Z,0.30
2018-03-19T13:06:55.561Z,0.35
2018-03-19T13:09:23.821Z,0.30
2018-03-19T13:11:52.135Z,0.40
2018-03-19T13:14:20.443Z,0.30
2018-03-19T13:16:48.717Z,0.30
2018-03-19T13:19:16.971Z,0.30
2018-03-19T13:21:45.997Z,0.30
2018-03-19T13:24:14.342Z,0.30
2018-03-19T13:26:43.354Z,0.40
2018-03-19T13:29:11.657Z,0.35
2018-03-19T13:31:40.026Z,0.30
2018-03-19T13:34:08.358Z,0.40
2018-03-19T13:36:36.657Z,0.30
2018-03-19T13:39:05.747Z,0.30
2018-03-19T13:41:34.798Z,0.30
2018-03-19T13:44:03.129Z,0.30
2018-03-19T13:46:32.224Z,0.30
2018-03-19T13:49:00.514Z,0.30
2018-03-19T13:51:28.841Z,0.32
2018-03-19T13:53:57.202Z,0.30
2018-03-19T13:56:25.534Z,0.30
2018-03-19T13:58:54.571Z,0.30
2018-03-19T14:01:22.902Z,0.30
2018-03-19T14:03:51.971Z,0.30
2018-03-19T14:06:20.273Z,0.37
2018-03-19T14:08:49.302Z,0.32
2018-03-19T14:11:17.557Z,0.40
2018-03-19T14:13:45.838Z,0.30
2018-03-19T14:16:14.164Z,0.30
2018-03-19T14:18:42.489Z,0.30
2018-03-19T14:21:10.763Z,0.30
2018-03-19T14:23:39.074Z,0.40
2018-03-19T14:26:07.341Z,0.30
2018-03-19T14:28:35.646Z,0.40
2018-03-19T14:31:03.938Z,0.30
2018-03-19T14:33:32.242Z,0.40
2018-03-19T14:36:01.284Z,0.40
2018-03-19T14:38:29.544Z,0.40
2018-03-19T14:40:57.850Z,0.40
2018-03-19T14:43:26.155Z,0.40
2018-03-19T14:45:55.273Z,0.40
2018-03-19T14:48:23.577Z,0.50
2018-03-19T14:50:51.946Z,0.50
2018-03-19T14:53:20.201Z,0.50
2018-03-19T14:55:48.502Z,0.40
2018-03-19T14:58:16.836Z,0.43
2018-03-19T15:00:45.126Z,0.60
2018-03-19T15:03:14.145Z,0.60
2018-03-19T15:05:42.467Z,0.60
2018-03-19T15:08:10.831Z,0.60
2018-03-19T15:10:39.082Z,0.60
2018-03-19T15:13:07.394Z,0.60
2018-03-19T15:15:35.710Z,0.60
2018-03-19T15:18:04.719Z,0.60
2018-03-19T15:20:33.028Z,0.60
2018-03-19T15:23:01.436Z,0.60
2018-03-19T15:25:29.811Z,0.60
2018-03-19T15:27:58.058Z,0.60
2018-03-19T15:30:26.372Z,0.60
2018-03-19T15:32:54.623Z,0.60
2018-03-19T15:35:22.904Z,0.60
2018-03-19T15:37:51.204Z,0.60
2018-03-19T15:40:19.451Z,0.60
2018-03-19T15:42:47.749Z,0.60
2018-03-19T15:45:16.035Z,0.60
2018-03-19T15:47:44.305Z,0.60
2018-03-19T15:50:12.593Z,0.70
2018-03-19T15:52:41.653Z,0.70
2018-03-19T15:55:09.957Z,0.70
2018-03-19T15:57:38.207Z,0.60
2018-03-19T16:00:06.528Z,0.70
2018-03-19T16:02:35.567Z,0.60
2018-03-19T16:05:03.871Z,0.60
2018-03-19T16:07:32.140Z,0.60
2018-03-19T16:10:00.407Z,0.63
2018-03-19T16:12:29.503Z,0.60
2018-03-19T16:14:57.824Z,0.70
2018-03-19T16:17:26.905Z,0.70
2018-03-19T16:19:55.142Z,0.60
2018-03-19T16:22:23.456Z,0.70
2018-03-19T16:24:51.768Z,0.70
2018-03-19T16:27:20.142Z,0.70
2018-03-19T16:29:48.367Z,0.70
2018-03-19T16:32:16.600Z,0.70
2018-03-19T16:34:44.928Z,0.70
2018-03-19T16:37:13.257Z,0.70
2018-03-19T16:39:41.532Z,0.70
2018-03-19T16:42:09.801Z,0.70
2018-03-19T16:44:38.888Z,0.70
2018-03-19T16:47:07.912Z,0.70
2018-03-19T16:49:36.156Z,0.70
2018-03-19T16:52:05.240Z,0.70
2018-03-19T16:54:33.556Z,0.70
2018-03-19T16:57:01.848Z,0.70
2018-03-19T16:59:30.086Z,0.70
2018-03-19T17:01:59.154Z,0.70
2018-03-19T17:04:27.451Z,0.70
2018-03-19T17:06:56.568Z,0.70
2018-03-19T17:09:24.836Z,0.70
2018-03-19T17:11:53.064Z,0.70
2018-03-19T17:14:21.344Z,0.70
2018-03-19T17:16:49.644Z,0.70
2018-03-19T17:19:17.953Z,0.70
2018-03-19T17:21:46.258Z,0.70
2018-03-19T17:24:14.592Z,0.70
2018-03-19T17:26:42.828Z,0.70
2018-03-19T17:29:11.128Z,0.70
2018-03-19T17:31:39.385Z,0.70
2018-03-19T17:34:08.507Z,0.70
2018-03-19T17:36:36.796Z,0.70
2018-03-19T17:39:05.814Z,0.70
2018-03-19T17:41:34.182Z,0.70
2018-03-19T17:44:02.392Z,0.70
2018-03-19T17:46:30.682Z,0.70
2018-03-19T17:48:58.982Z,0.70
2018-03-19T17:51:27.229Z,0.70
2018-03-19T17:53:55.545Z,0.70
2018-03-19T17:56:24.613Z,0.70
2018-03-19T17:58:52.931Z,0.70
2018-03-19T18:01:21.241Z,0.73
2018-03-19T18:03:49.570Z,0.70
2018-03-19T18:06:18.625Z,0.70
2018-03-19T18:08:46.861Z,0.70
2018-03-19T18:11:15.112Z,0.70
2018-03-19T18:13:44.123Z,0.70
2018-03-19T18:16:12.388Z,0.70
2018-03-19T18:18:41.454Z,0.70
2018-03-19T18:21:09.722Z,0.70
2018-03-19T18:23:38.043Z,0.70
2018-03-19T18:26:06.330Z,0.70
2018-03-19T18:28:34.587Z,0.70
2018-03-19T18:31:02.902Z,0.70
2018-03-19T18:33:31.202Z,0.70
2018-03-19T18:35:59.463Z,0.80
2018-03-19T18:38:27.753Z,0.70
2018-03-19T18:40:56.043Z,0.70
2018-03-19T18:43:24.304Z,0.70
2018-03-19T18:45:53.383Z,0.70
2018-03-19T18:48:21.679Z,0.80
2018-03-19T18:50:49.944Z,0.70
2018-03-19T18:53:18.277Z,0.70
2018-03-19T18:55:47.289Z,0.70
2018-03-19T18:58:15.575Z,0.70
2018-03-19T19:00:43.879Z,0.70
2018-03-19T19:03:12.178Z,0.77
2018-03-19T19:05:40.478Z,0.70
2018-03-19T19:08:09.540Z,0.80
2018-03-19T19:10:37.865Z,0.80
2018-03-19T19:13:06.943Z,0.73
2018-03-19T19:15:35.273Z,0.70
2018-03-19T19:18:03.530Z,0.80
2018-03-19T19:20:31.829Z,0.77
2018-03-19T19:23:00.111Z,0.80
2018-03-19T19:25:28.425Z,0.80
2018-03-19T19:27:56.725Z,0.70
2018-03-19T19:30:25.132Z,0.70
2018-03-19T19:32:53.451Z,0.70
2018-03-19T19:35:21.799Z,0.70
2018-03-19T19:37:50.120Z,0.80
2018-03-19T19:40:18.446Z,0.80
2018-03-19T19:42:46.713Z,0.80
2018-03-19T19:45:15.026Z,0.80
2018-03-19T19:47:43.304Z,0.77
2018-03-19T19:50:11.581Z,0.70
2018-03-19T19:52:39.869Z,0.80
2018-03-19T19:55:08.122Z,0.80
2018-03-19T19:57:36.397Z,0.80
2018-03-19T20:00:04.643Z,0.70
2018-03-19T20:02:32.969Z,0.80
2018-03-19T20:05:01.268Z,0.70
2018-03-19T20:07:30.345Z,0.80
2018-03-19T20:09:58.597Z,0.80
2018-03-19T20:12:26.964Z,0.80
2018-03-19T20:14:55.257Z,0.80
2018-03-19T20:17:24.523Z,0.80
2018-03-19T20:19:52.832Z,0.70
2018-03-19T20:22:21.112Z,0.80
2018-03-19T20:24:49.405Z,0.80
2018-03-19T20:27:17.687Z,0.70
2018-03-19T20:29:46.012Z,0.70
2018-03-19T20:32:14.312Z,0.80
2018-03-19T20:34:42.620Z,0.80
2018-03-19T20:37:10.894Z,0.77
2018-03-19T20:39:39.177Z,0.80
2018-03-19T20:42:07.452Z,0.80
2018-03-19T20:44:35.713Z,0.80
2018-03-19T20:47:04.012Z,0.80
2018-03-19T20:49:32.305Z,0.80
2018-03-19T20:52:01.671Z,0.80
2018-03-19T20:54:30.009Z,0.80
2018-03-19T20:56:59.110Z,0.80
2018-03-19T20:59:27.420Z,0.70
2018-03-19T21:01:55.702Z,0.80
2018-03-19T21:04:24.033Z,0.80
2018-03-19T21:06:52.281Z,0.80
2018-03-19T21:09:21.377Z,0.80
2018-03-19T21:11:50.430Z,0.80
2018-03-19T21:14:18.725Z,0.80
2018-03-19T21:16:46.987Z,0.80
2018-03-19T21:19:15.276Z,0.80
2018-03-19T21:21:43.533Z,0.80
2018-03-19T21:24:11.795Z,0.80
2018-03-19T21:26:40.149Z,0.80
2018-03-19T21:29:08.403Z,0.80
2018-03-19T21:31:36.708Z,0.80
2018-03-19T21:34:04.985Z,0.70
2018-03-19T21:36:33.245Z,0.80
2018-03-19T21:39:02.334Z,0.80
2018-03-19T21:41:30.614Z,0.80
2018-03-19T21:43:59.710Z,0.80
2018-03-19T21:46:28.806Z,0.80
2018-03-19T21:48:57.106Z,0.70
2018-03-19T21:51:25.382Z,0.80
2018-03-19T21:53:53.626Z,0.80
2018-03-19T21:56:22.738Z,0.80
2018-03-19T21:58:51.741Z,0.80
2018-03-19T22:01:20.030Z,0.80
2018-03-19T22:03:48.325Z,0.80
2018-03-19T22:06:16.594Z,0.80
2018-03-19T22:08:44.889Z,0.70
2018-03-19T22:11:13.214Z,0.80
2018-03-19T22:13:42.220Z,0.80
2018-03-19T22:16:10.581Z,0.80
2018-03-19T22:18:39.630Z,0.80
2018-03-19T22:21:07.889Z,0.80
2018-03-19T22:23:37.079Z,0.80
2018-03-19T22:26:05.411Z,0.80
2018-03-19T22:28:33.706Z,0.80
2018-03-19T22:31:02.790Z,0.80
2018-03-19T22:33:31.041Z,0.80
2018-03-19T22:35:59.280Z,0.80
2018-03-19T22:38:27.557Z,0.80
2018-03-19T22:40:55.802Z,0.80
2018-03-19T22:43:24.854Z,0.80
2018-03-19T22:45:53.154Z,0.80
2018-03-19T22:48:21.402Z,0.80
2018-03-19T22:50:49.688Z,0.80
2018-03-19T22:53:17.977Z,0.80
2018-03-19T22:55:46.273Z,0.80
2018-03-19T22:58:14.525Z,0.80
2018-03-19T23:00:42.831Z,0.80
2018-03-19T23:03:11.063Z,0.80
2018-03-19T23:05:39.451Z,0.80
2018-03-19T23:08:07.694Z,0.80
2018-03-19T23:10:35.958Z,0.80
2018-03-19T23:13:04.208Z,0.80
2018-03-19T23:15:33.264Z,0.80
2018-03-19T23:18:01.513Z,0.73
2018-03-19T23:20:29.795Z,0.80
2018-03-19T23:22:58.073Z,0.80
2018-03-19T23:25:26.380Z,0.80
2018-03-19T23:27:54.668Z,0.80
2018-03-19T23:30:22.956Z,0.80
2018-03-19T23:32:51.185Z,0.77
2018-03-19T23:35:19.458Z,0.80
2018-03-19T23:37:47.715Z,0.80
2018-03-19T23:40:15.988Z,0.80
2018-03-19T23:42:44.231Z,0.80
2018-03-19T23:45:12.534Z,0.70
2018-03-19T23:47:41.545Z,0.80
2018-03-19T23:50:09.784Z,0.80
2018-03-19T23:52:38.044Z,0.80
2018-03-19T23:55:06.347Z,0.80
2018-03-19T23:57:35.414Z,0.80
